sensor_id;sensor_type;location;lat;lon;timestamp;temperature;humidity
73509;SHT30;61750;55.036;73.312;2023-03-19T00:02:27;-6.69;72.42
73509;SHT30;61750;55.036;73.312;2023-03-19T00:04:53;-6.91;72.09
73509;SHT30;61750;55.036;73.312;2023-03-19T00:07:19;-7.04;72.63
73509;SHT30;61750;55.036;73.312;2023-03-19T00:09:45;-7.10;73.39
73509;SHT30;61750;55.036;73.312;2023-03-19T00:12:12;-7.18;73.11
73509;SHT30;61750;55.036;73.312;2023-03-19T00:14:43;-7.41;72.81
73509;SHT30;61750;55.036;73.312;2023-03-19T00:17:10;-7.58;73.12
73509;SHT30;61750;55.036;73.312;2023-03-19T00:19:36;-7.65;73.72
73509;SHT30;61750;55.036;73.312;2023-03-19T00:22:09;-7.74;73.44
73509;SHT30;61750;55.036;73.312;2023-03-19T00:24:34;-7.81;73.84
73509;SHT30;61750;55.036;73.312;2023-03-19T00:27:09;-7.83;74.16
73509;SHT30;61750;55.036;73.312;2023-03-19T00:29:35;-7.86;74.47
73509;SHT30;61750;55.036;73.312;2023-03-19T00:32:09;-7.87;74.24
73509;SHT30;61750;55.036;73.312;2023-03-19T00:34:35;-7.89;73.65
73509;SHT30;61750;55.036;73.312;2023-03-19T00:37:09;-7.92;73.80
73509;SHT30;61750;55.036;73.312;2023-03-19T00:39:36;-7.92;74.02
73509;SHT30;61750;55.036;73.312;2023-03-19T00:42:02;-7.96;73.51
73509;SHT30;61750;55.036;73.312;2023-03-19T00:44:38;-7.97;73.56
73509;SHT30;61750;55.036;73.312;2023-03-19T00:47:09;-8.00;73.53
73509;SHT30;61750;55.036;73.312;2023-03-19T00:49:40;-8.03;73.57
73509;SHT30;61750;55.036;73.312;2023-03-19T00:52:09;-8.06;73.71
73509;SHT30;61750;55.036;73.312;2023-03-19T00:54:35;-8.03;73.81
73509;SHT30;61750;55.036;73.312;2023-03-19T00:57:09;-8.06;73.85
73509;SHT30;61750;55.036;73.312;2023-03-19T00:59:35;-8.03;74.21
73509;SHT30;61750;55.036;73.312;2023-03-19T01:02:09;-8.13;74.23
73509;SHT30;61750;55.036;73.312;2023-03-19T01:04:35;-8.10;74.37
73509;SHT30;61750;55.036;73.312;2023-03-19T01:07:09;-8.13;74.27
73509;SHT30;61750;55.036;73.312;2023-03-19T01:09:35;-8.19;74.31
73509;SHT30;61750;55.036;73.312;2023-03-19T01:12:01;-8.24;74.42
73509;SHT30;61750;55.036;73.312;2023-03-19T01:14:30;-8.31;74.05
73509;SHT30;61750;55.036;73.312;2023-03-19T01:17:09;-8.31;74.42
73509;SHT30;61750;55.036;73.312;2023-03-19T01:19:35;-8.34;74.68
73509;SHT30;61750;55.036;73.312;2023-03-19T01:22:09;-8.34;74.39
73509;SHT30;61750;55.036;73.312;2023-03-19T01:24:36;-8.37;74.43
73509;SHT30;61750;55.036;73.312;2023-03-19T01:27:09;-8.50;73.91
73509;SHT30;61750;55.036;73.312;2023-03-19T01:29:35;-8.55;73.80
73509;SHT30;61750;55.036;73.312;2023-03-19T01:32:18;-8.58;74.11
73509;SHT30;61750;55.036;73.312;2023-03-19T01:35:13;-8.67;74.04
73509;SHT30;61750;55.036;73.312;2023-03-19T01:37:48;-8.77;73.79
73509;SHT30;61750;55.036;73.312;2023-03-19T01:40:14;-8.87;73.73
73509;SHT30;61750;55.036;73.312;2023-03-19T01:42:56;-8.98;73.45
73509;SHT30;61750;55.036;73.312;2023-03-19T01:45:49;-9.14;73.26
73509;SHT30;61750;55.036;73.312;2023-03-19T01:51:18;-9.26;73.12
73509;SHT30;61750;55.036;73.312;2023-03-19T01:54:11;-9.36;72.95
73509;SHT30;61750;55.036;73.312;2023-03-19T01:57:10;-9.47;73.08
73509;SHT30;61750;55.036;73.312;2023-03-19T02:00:08;-9.61;72.76
73509;SHT30;61750;55.036;73.312;2023-03-19T02:02:51;-9.63;73.00
73509;SHT30;61750;55.036;73.312;2023-03-19T02:05:56;-9.69;72.82
73509;SHT30;61750;55.036;73.312;2023-03-19T02:08:23;-9.80;72.45
73509;SHT30;61750;55.036;73.312;2023-03-19T02:10:50;-9.80;72.64
73509;SHT30;61750;55.036;73.312;2023-03-19T02:13:27;-9.87;72.38
73509;SHT30;61750;55.036;73.312;2023-03-19T02:15:53;-9.87;72.40
73509;SHT30;61750;55.036;73.312;2023-03-19T02:18:20;-9.93;72.05
73509;SHT30;61750;55.036;73.312;2023-03-19T02:21:06;-9.94;72.19
73509;SHT30;61750;55.036;73.312;2023-03-19T02:26:16;-10.01;71.61
73509;SHT30;61750;55.036;73.312;2023-03-19T02:28:46;-10.04;71.65
73509;SHT30;61750;55.036;73.312;2023-03-19T02:31:21;-10.04;71.35
73509;SHT30;61750;55.036;73.312;2023-03-19T02:34:00;-10.11;70.62
73509;SHT30;61750;55.036;73.312;2023-03-19T02:36:28;-10.14;70.15
73509;SHT30;61750;55.036;73.312;2023-03-19T02:39:07;-10.15;69.85
73509;SHT30;61750;55.036;73.312;2023-03-19T02:41:42;-10.10;69.73
73509;SHT30;61750;55.036;73.312;2023-03-19T02:44:09;-10.07;69.75
73509;SHT30;61750;55.036;73.312;2023-03-19T02:47:09;-10.05;70.02
73509;SHT30;61750;55.036;73.312;2023-03-19T02:49:35;-10.14;70.25
73509;SHT30;61750;55.036;73.312;2023-03-19T02:52:09;-10.11;70.52
73509;SHT30;61750;55.036;73.312;2023-03-19T02:54:35;-10.04;70.67
73509;SHT30;61750;55.036;73.312;2023-03-19T02:57:09;-10.04;70.10
73509;SHT30;61750;55.036;73.312;2023-03-19T02:59:35;-10.05;69.67
73509;SHT30;61750;55.036;73.312;2023-03-19T03:02:09;-10.07;69.48
73509;SHT30;61750;55.036;73.312;2023-03-19T03:04:40;-10.22;68.86
73509;SHT30;61750;55.036;73.312;2023-03-19T03:07:16;-10.13;69.26
73509;SHT30;61750;55.036;73.312;2023-03-19T03:09:42;-10.11;68.71
73509;SHT30;61750;55.036;73.312;2023-03-19T03:12:09;-10.21;67.44
73509;SHT30;61750;55.036;73.312;2023-03-19T03:14:35;-10.28;67.05
73509;SHT30;61750;55.036;73.312;2023-03-19T03:17:09;-10.18;67.23
73509;SHT30;61750;55.036;73.312;2023-03-19T03:19:35;-10.21;66.71
73509;SHT30;61750;55.036;73.312;2023-03-19T03:22:09;-10.15;66.95
73509;SHT30;61750;55.036;73.312;2023-03-19T03:24:35;-10.14;66.37
73509;SHT30;61750;55.036;73.312;2023-03-19T03:27:09;-10.17;66.20
73509;SHT30;61750;55.036;73.312;2023-03-19T03:29:35;-10.11;65.65
73509;SHT30;61750;55.036;73.312;2023-03-19T03:32:09;-10.11;65.53
73509;SHT30;61750;55.036;73.312;2023-03-19T03:34:35;-10.05;65.33
73509;SHT30;61750;55.036;73.312;2023-03-19T03:37:09;-10.17;64.40
73509;SHT30;61750;55.036;73.312;2023-03-19T03:39:35;-10.17;64.17
73509;SHT30;61750;55.036;73.312;2023-03-19T03:42:13;-10.07;64.41
73509;SHT30;61750;55.036;73.312;2023-03-19T03:44:45;-10.00;63.80
73509;SHT30;61750;55.036;73.312;2023-03-19T03:47:11;-10.07;63.14
73509;SHT30;61750;55.036;73.312;2023-03-19T03:49:48;-10.08;62.96
73509;SHT30;61750;55.036;73.312;2023-03-19T03:52:14;-10.11;62.76
73509;SHT30;61750;55.036;73.312;2023-03-19T03:54:41;-10.07;62.78
73509;SHT30;61750;55.036;73.312;2023-03-19T03:57:12;-9.85;63.37
73509;SHT30;61750;55.036;73.312;2023-03-19T03:59:38;-9.75;63.11
73509;SHT30;61750;55.036;73.312;2023-03-19T04:02:09;-9.69;62.33
73509;SHT30;61750;55.036;73.312;2023-03-19T04:04:35;-9.51;62.68
73509;SHT30;61750;55.036;73.312;2023-03-19T04:07:09;-9.50;62.07
73509;SHT30;61750;55.036;73.312;2023-03-19T04:09:41;-9.43;61.52
73509;SHT30;61750;55.036;73.312;2023-03-19T04:12:07;-9.30;62.16
73509;SHT30;61750;55.036;73.312;2023-03-19T04:14:39;-9.43;61.18
73509;SHT30;61750;55.036;73.312;2023-03-19T04:17:11;-9.44;61.98
73509;SHT30;61750;55.036;73.312;2023-03-19T04:19:40;-9.39;61.80
73509;SHT30;61750;55.036;73.312;2023-03-19T04:22:09;-9.53;60.59
73509;SHT30;61750;55.036;73.312;2023-03-19T04:24:39;-9.47;60.62
73509;SHT30;61750;55.036;73.312;2023-03-19T04:27:09;-9.42;60.13
73509;SHT30;61750;55.036;73.312;2023-03-19T04:29:37;-9.36;59.58
73509;SHT30;61750;55.036;73.312;2023-03-19T04:32:09;-9.25;59.91
73509;SHT30;61750;55.036;73.312;2023-03-19T04:34:35;-9.23;59.48
73509;SHT30;61750;55.036;73.312;2023-03-19T04:37:09;-9.18;59.17
73509;SHT30;61750;55.036;73.312;2023-03-19T04:39:42;-9.29;58.63
73509;SHT30;61750;55.036;73.312;2023-03-19T04:42:13;-9.09;60.06
73509;SHT30;61750;55.036;73.312;2023-03-19T04:45:02;-8.96;59.77
73509;SHT30;61750;55.036;73.312;2023-03-19T04:47:30;-8.85;59.45
73509;SHT30;61750;55.036;73.312;2023-03-19T04:49:59;-8.85;58.56
73509;SHT30;61750;55.036;73.312;2023-03-19T04:52:25;-8.95;57.94
73509;SHT30;61750;55.036;73.312;2023-03-19T04:54:52;-8.88;58.38
73509;SHT30;61750;55.036;73.312;2023-03-19T04:57:19;-8.87;57.87
73509;SHT30;61750;55.036;73.312;2023-03-19T04:59:47;-8.81;56.67
73509;SHT30;61750;55.036;73.312;2023-03-19T05:02:15;-8.94;56.12
73509;SHT30;61750;55.036;73.312;2023-03-19T05:04:42;-8.75;57.70
73509;SHT30;61750;55.036;73.312;2023-03-19T05:07:13;-8.64;56.60
73509;SHT30;61750;55.036;73.312;2023-03-19T05:09:47;-8.41;57.38
73509;SHT30;61750;55.036;73.312;2023-03-19T05:12:14;-8.30;56.02
73509;SHT30;61750;55.036;73.312;2023-03-19T05:14:45;-8.23;55.84
73509;SHT30;61750;55.036;73.312;2023-03-19T05:17:17;-8.23;55.83
73509;SHT30;61750;55.036;73.312;2023-03-19T05:19:59;-8.31;55.05
73509;SHT30;61750;55.036;73.312;2023-03-19T05:22:29;-8.19;55.45
73509;SHT30;61750;55.036;73.312;2023-03-19T05:24:56;-8.33;54.07
73509;SHT30;61750;55.036;73.312;2023-03-19T05:27:28;-8.27;53.21
73509;SHT30;61750;55.036;73.312;2023-03-19T05:30:07;-8.09;54.52
73509;SHT30;61750;55.036;73.312;2023-03-19T05:32:51;-7.99;54.78
73509;SHT30;61750;55.036;73.312;2023-03-19T05:35:37;-7.75;54.85
73509;SHT30;61750;55.036;73.312;2023-03-19T05:38:24;-7.81;54.44
73509;SHT30;61750;55.036;73.312;2023-03-19T05:40:55;-7.78;54.41
73509;SHT30;61750;55.036;73.312;2023-03-19T05:43:34;-7.86;53.29
73509;SHT30;61750;55.036;73.312;2023-03-19T05:46:05;-7.85;54.77
73509;SHT30;61750;55.036;73.312;2023-03-19T05:48:32;-7.79;52.81
73509;SHT30;61750;55.036;73.312;2023-03-19T05:51:06;-7.76;52.87
73509;SHT30;61750;55.036;73.312;2023-03-19T05:53:36;-7.79;52.04
73509;SHT30;61750;55.036;73.312;2023-03-19T05:56:25;-7.72;52.37
73509;SHT30;61750;55.036;73.312;2023-03-19T05:59:37;-7.79;52.02
73509;SHT30;61750;55.036;73.312;2023-03-19T06:02:26;-7.69;51.71
73509;SHT30;61750;55.036;73.312;2023-03-19T06:05:11;-7.56;51.50
73509;SHT30;61750;55.036;73.312;2023-03-19T06:07:46;-7.36;52.31
73509;SHT30;61750;55.036;73.312;2023-03-19T06:10:34;-7.32;50.75
73509;SHT30;61750;55.036;73.312;2023-03-19T06:13:02;-7.36;50.71
73509;SHT30;61750;55.036;73.312;2023-03-19T06:15:42;-7.35;50.24
73509;SHT30;61750;55.036;73.312;2023-03-19T06:18:20;-7.25;50.60
73509;SHT30;61750;55.036;73.312;2023-03-19T06:20:49;-7.38;49.47
73509;SHT30;61750;55.036;73.312;2023-03-19T06:23:22;-7.39;49.38
73509;SHT30;61750;55.036;73.312;2023-03-19T06:25:48;-7.31;48.99
73509;SHT30;61750;55.036;73.312;2023-03-19T06:28:21;-7.08;48.89
73509;SHT30;61750;55.036;73.312;2023-03-19T06:30:48;-7.03;48.55
73509;SHT30;61750;55.036;73.312;2023-03-19T06:33:34;-6.94;49.11
73509;SHT30;61750;55.036;73.312;2023-03-19T06:36:12;-6.93;49.01
73509;SHT30;61750;55.036;73.312;2023-03-19T06:38:39;-6.81;48.31
73509;SHT30;61750;55.036;73.312;2023-03-19T06:41:07;-6.42;49.86
73509;SHT30;61750;55.036;73.312;2023-03-19T06:43:33;-6.53;47.46
73509;SHT30;61750;55.036;73.312;2023-03-19T06:46:07;-6.76;47.07
73509;SHT30;61750;55.036;73.312;2023-03-19T06:48:34;-6.67;47.55
73509;SHT30;61750;55.036;73.312;2023-03-19T06:51:00;-6.62;48.10
73509;SHT30;61750;55.036;73.312;2023-03-19T06:53:29;-6.70;46.86
73509;SHT30;61750;55.036;73.312;2023-03-19T06:55:56;-6.42;47.36
73509;SHT30;61750;55.036;73.312;2023-03-19T06:58:25;-6.13;48.23
73509;SHT30;61750;55.036;73.312;2023-03-19T07:00:51;-6.15;48.65
73509;SHT30;61750;55.036;73.312;2023-03-19T07:03:27;-5.97;48.03
73509;SHT30;61750;55.036;73.312;2023-03-19T07:05:53;-5.57;47.09
73509;SHT30;61750;55.036;73.312;2023-03-19T07:08:19;-5.57;47.55
73509;SHT30;61750;55.036;73.312;2023-03-19T07:10:46;-5.53;45.95
73509;SHT30;61750;55.036;73.312;2023-03-19T07:13:12;-5.51;46.68
73509;SHT30;61750;55.036;73.312;2023-03-19T07:15:39;-5.40;46.43
73509;SHT30;61750;55.036;73.312;2023-03-19T07:18:05;-5.12;45.56
73509;SHT30;61750;55.036;73.312;2023-03-19T07:20:32;-5.02;46.98
73509;SHT30;61750;55.036;73.312;2023-03-19T07:22:58;-5.17;43.91
73509;SHT30;61750;55.036;73.312;2023-03-19T07:25:25;-5.30;45.70
73509;SHT30;61750;55.036;73.312;2023-03-19T07:27:54;-4.92;46.17
73509;SHT30;61750;55.036;73.312;2023-03-19T07:30:20;-5.13;44.04
73509;SHT30;61750;55.036;73.312;2023-03-19T07:32:47;-4.88;44.30
73509;SHT30;61750;55.036;73.312;2023-03-19T07:35:13;-4.83;44.10
73509;SHT30;61750;55.036;73.312;2023-03-19T07:37:48;-4.52;42.87
73509;SHT30;61750;55.036;73.312;2023-03-19T07:40:14;-4.49;43.84
73509;SHT30;61750;55.036;73.312;2023-03-19T07:42:40;-4.88;42.16
73509;SHT30;61750;55.036;73.312;2023-03-19T07:45:09;-4.78;42.85
73509;SHT30;61750;55.036;73.312;2023-03-19T07:47:45;-4.21;43.41
73509;SHT30;61750;55.036;73.312;2023-03-19T07:50:12;-4.24;43.59
73509;SHT30;61750;55.036;73.312;2023-03-19T07:52:38;-4.08;43.40
73509;SHT30;61750;55.036;73.312;2023-03-19T07:55:05;-3.80;42.65
73509;SHT30;61750;55.036;73.312;2023-03-19T07:57:31;-3.94;40.93
73509;SHT30;61750;55.036;73.312;2023-03-19T07:59:57;-4.04;41.49
73509;SHT30;61750;55.036;73.312;2023-03-19T08:02:38;-4.10;40.75
73509;SHT30;61750;55.036;73.312;2023-03-19T08:05:05;-3.94;41.09
73509;SHT30;61750;55.036;73.312;2023-03-19T08:07:31;-3.89;40.76
73509;SHT30;61750;55.036;73.312;2023-03-19T08:09:57;-3.79;40.61
73509;SHT30;61750;55.036;73.312;2023-03-19T08:12:33;-3.84;41.37
73509;SHT30;61750;55.036;73.312;2023-03-19T08:15:15;-3.63;42.19
73509;SHT30;61750;55.036;73.312;2023-03-19T08:17:47;-3.52;41.76
73509;SHT30;61750;55.036;73.312;2023-03-19T08:20:14;-3.72;41.15
73509;SHT30;61750;55.036;73.312;2023-03-19T08:22:49;-3.56;41.76
73509;SHT30;61750;55.036;73.312;2023-03-19T08:25:15;-3.13;42.15
73509;SHT30;61750;55.036;73.312;2023-03-19T08:27:41;-2.97;41.12
73509;SHT30;61750;55.036;73.312;2023-03-19T08:30:09;-3.07;41.52
73509;SHT30;61750;55.036;73.312;2023-03-19T08:32:36;-2.94;41.47
73509;SHT30;61750;55.036;73.312;2023-03-19T08:35:03;-3.13;40.44
73509;SHT30;61750;55.036;73.312;2023-03-19T08:37:31;-2.60;40.78
73509;SHT30;61750;55.036;73.312;2023-03-19T08:40:15;-2.57;40.61
73509;SHT30;61750;55.036;73.312;2023-03-19T08:42:52;-2.28;39.59
73509;SHT30;61750;55.036;73.312;2023-03-19T08:45:18;-2.03;39.89
73509;SHT30;61750;55.036;73.312;2023-03-19T08:47:45;-1.98;38.38
73509;SHT30;61750;55.036;73.312;2023-03-19T08:50:14;-1.99;39.41
73509;SHT30;61750;55.036;73.312;2023-03-19T08:52:43;-1.91;39.46
73509;SHT30;61750;55.036;73.312;2023-03-19T08:55:15;-1.64;40.17
73509;SHT30;61750;55.036;73.312;2023-03-19T08:57:42;-1.35;39.14
73509;SHT30;61750;55.036;73.312;2023-03-19T09:00:09;-1.28;38.28
73509;SHT30;61750;55.036;73.312;2023-03-19T09:02:35;-1.48;38.14
73509;SHT30;61750;55.036;73.312;2023-03-19T09:05:01;-1.08;37.28
73509;SHT30;61750;55.036;73.312;2023-03-19T09:07:27;-0.97;37.81
73509;SHT30;61750;55.036;73.312;2023-03-19T09:09:53;-1.11;36.33
73509;SHT30;61750;55.036;73.312;2023-03-19T09:12:19;-0.99;36.59
73509;SHT30;61750;55.036;73.312;2023-03-19T09:14:48;-0.60;37.18
73509;SHT30;61750;55.036;73.312;2023-03-19T09:17:15;-0.70;35.90
73509;SHT30;61750;55.036;73.312;2023-03-19T09:19:42;-0.53;35.45
73509;SHT30;61750;55.036;73.312;2023-03-19T09:22:09;-0.09;35.78
73509;SHT30;61750;55.036;73.312;2023-03-19T09:24:35;-0.40;34.83
73509;SHT30;61750;55.036;73.312;2023-03-19T09:27:11;0.37;35.50
73509;SHT30;61750;55.036;73.312;2023-03-19T09:29:37;0.50;35.01
73509;SHT30;61750;55.036;73.312;2023-03-19T09:32:11;0.53;36.18
73509;SHT30;61750;55.036;73.312;2023-03-19T09:34:37;1.12;35.38
73509;SHT30;61750;55.036;73.312;2023-03-19T09:37:11;1.15;34.57
73509;SHT30;61750;55.036;73.312;2023-03-19T09:39:37;1.20;34.81
73509;SHT30;61750;55.036;73.312;2023-03-19T09:44:31;1.41;35.10
73509;SHT30;61750;55.036;73.312;2023-03-19T09:49:56;1.17;33.52
73509;SHT30;61750;55.036;73.312;2023-03-19T09:55:47;2.40;32.73
73509;SHT30;61750;55.036;73.312;2023-03-19T09:57:54;2.87;31.93
73509;SHT30;61750;55.036;73.312;2023-03-19T10:00:35;3.04;31.93
73509;SHT30;61750;55.036;73.312;2023-03-19T10:03:20;2.26;31.11
73509;SHT30;61750;55.036;73.312;2023-03-19T10:05:51;2.50;32.01
73509;SHT30;61750;55.036;73.312;2023-03-19T10:16:21;3.52;31.41
73509;SHT30;61750;55.036;73.312;2023-03-19T10:18:49;3.18;30.80
73509;SHT30;61750;55.036;73.312;2023-03-19T10:21:28;3.69;29.51
73509;SHT30;61750;55.036;73.312;2023-03-19T10:23:58;3.11;29.41
73509;SHT30;61750;55.036;73.312;2023-03-19T10:27:13;3.90;30.55
73509;SHT30;61750;55.036;73.312;2023-03-19T10:29:39;4.15;29.20
73509;SHT30;61750;55.036;73.312;2023-03-19T10:34:54;3.77;28.93
73509;SHT30;61750;55.036;73.312;2023-03-19T10:37:33;4.12;29.65
73509;SHT30;61750;55.036;73.312;2023-03-19T10:40:13;4.41;29.27
73509;SHT30;61750;55.036;73.312;2023-03-19T10:45:28;4.14;30.31
73509;SHT30;61750;55.036;73.312;2023-03-19T10:47:56;4.32;29.04
73509;SHT30;61750;55.036;73.312;2023-03-19T10:50:27;4.22;28.94
73509;SHT30;61750;55.036;73.312;2023-03-19T10:53:04;4.59;29.01
73509;SHT30;61750;55.036;73.312;2023-03-19T10:55:31;4.48;29.75
73509;SHT30;61750;55.036;73.312;2023-03-19T10:58:14;4.80;29.40
73509;SHT30;61750;55.036;73.312;2023-03-19T11:00:40;4.97;28.55
73509;SHT30;61750;55.036;73.312;2023-03-19T11:08:56;1.56;31.46
73509;SHT30;61750;55.036;73.312;2023-03-19T11:12:26;2.57;31.04
73509;SHT30;61750;55.036;73.312;2023-03-19T11:14:37;3.53;29.50
73509;SHT30;61750;55.036;73.312;2023-03-19T11:19:39;5.26;28.32
73509;SHT30;61750;55.036;73.312;2023-03-19T11:22:22;5.31;27.60
73509;SHT30;61750;55.036;73.312;2023-03-19T11:25:34;5.33;26.94
73509;SHT30;61750;55.036;73.312;2023-03-19T11:27:38;6.22;27.81
73509;SHT30;61750;55.036;73.312;2023-03-19T11:30:17;6.12;27.24
73509;SHT30;61750;55.036;73.312;2023-03-19T11:35:29;5.01;27.19
73509;SHT30;61750;55.036;73.312;2023-03-19T11:37:57;5.00;27.74
73509;SHT30;61750;55.036;73.312;2023-03-19T11:40:40;4.37;27.67
73509;SHT30;61750;55.036;73.312;2023-03-19T11:43:12;4.71;28.07
73509;SHT30;61750;55.036;73.312;2023-03-19T11:46:05;5.23;28.14
73509;SHT30;61750;55.036;73.312;2023-03-19T11:51:29;4.93;28.82
73509;SHT30;61750;55.036;73.312;2023-03-19T12:05:17;4.10;27.62
73509;SHT30;61750;55.036;73.312;2023-03-19T12:11:06;4.34;27.72
73509;SHT30;61750;55.036;73.312;2023-03-19T12:16:08;3.29;28.76
73509;SHT30;61750;55.036;73.312;2023-03-19T12:21:08;2.58;29.64
73509;SHT30;61750;55.036;73.312;2023-03-19T12:23:43;2.36;29.76
73509;SHT30;61750;55.036;73.312;2023-03-19T12:28:46;2.82;29.26
73509;SHT30;61750;55.036;73.312;2023-03-19T12:34:04;2.13;30.09
73509;SHT30;61750;55.036;73.312;2023-03-19T12:39:53;1.09;31.80
73509;SHT30;61750;55.036;73.312;2023-03-19T12:42:29;0.29;32.80
73509;SHT30;61750;55.036;73.312;2023-03-19T12:45:02;0.22;33.56
73509;SHT30;61750;55.036;73.312;2023-03-19T12:47:32;0.05;33.81
73509;SHT30;61750;55.036;73.312;2023-03-19T12:50:00;-0.22;34.68
73509;SHT30;61750;55.036;73.312;2023-03-19T12:54:55;-1.10;35.61
73509;SHT30;61750;55.036;73.312;2023-03-19T13:02:42;-3.87;41.51
73509;SHT30;61750;55.036;73.312;2023-03-19T13:05:31;-4.55;43.37
73509;SHT30;61750;55.036;73.312;2023-03-19T13:08:18;-5.05;45.34
73509;SHT30;61750;55.036;73.312;2023-03-19T13:10:57;-5.47;46.39
73509;SHT30;61750;55.036;73.312;2023-03-19T13:16:17;-5.92;47.76
73509;SHT30;61750;55.036;73.312;2023-03-19T13:21:16;-6.01;48.17
73509;SHT30;61750;55.036;73.312;2023-03-19T13:23:47;-6.01;48.14
73509;SHT30;61750;55.036;73.312;2023-03-19T13:26:18;-6.12;48.19
73509;SHT30;61750;55.036;73.312;2023-03-19T13:29:00;-6.18;49.10
73509;SHT30;61750;55.036;73.312;2023-03-19T13:31:27;-6.25;48.97
73509;SHT30;61750;55.036;73.312;2023-03-19T13:34:02;-6.37;48.99
73509;SHT30;61750;55.036;73.312;2023-03-19T13:36:29;-6.39;49.26
73509;SHT30;61750;55.036;73.312;2023-03-19T13:39:10;-6.53;49.47
73509;SHT30;61750;55.036;73.312;2023-03-19T13:44:28;-6.73;50.21
73509;SHT30;61750;55.036;73.312;2023-03-19T13:47:35;-6.84;50.44
73509;SHT30;61750;55.036;73.312;2023-03-19T13:50:48;-6.97;50.90
73509;SHT30;61750;55.036;73.312;2023-03-19T13:52:49;-7.07;51.77
73509;SHT30;61750;55.036;73.312;2023-03-19T14:01:03;-7.36;52.37
73509;SHT30;61750;55.036;73.312;2023-03-19T14:03:33;-7.42;52.40
73509;SHT30;61750;55.036;73.312;2023-03-19T14:06:27;-7.46;52.41
73509;SHT30;61750;55.036;73.312;2023-03-19T14:08:56;-7.55;52.84
73509;SHT30;61750;55.036;73.312;2023-03-19T14:11:23;-7.59;52.67
73509;SHT30;61750;55.036;73.312;2023-03-19T14:13:50;-7.65;53.07
73509;SHT30;61750;55.036;73.312;2023-03-19T14:16:25;-7.68;53.34
73509;SHT30;61750;55.036;73.312;2023-03-19T14:18:56;-7.71;53.49
73509;SHT30;61750;55.036;73.312;2023-03-19T14:22:15;-7.81;53.46
73509;SHT30;61750;55.036;73.312;2023-03-19T14:28:15;-7.90;53.95
73509;SHT30;61750;55.036;73.312;2023-03-19T14:30:43;-7.93;53.85
73509;SHT30;61750;55.036;73.312;2023-03-19T14:36:22;-8.06;54.02
73509;SHT30;61750;55.036;73.312;2023-03-19T14:39:41;-8.07;54.47
73509;SHT30;61750;55.036;73.312;2023-03-19T14:41:48;-8.14;54.99
73509;SHT30;61750;55.036;73.312;2023-03-19T14:53:09;-8.26;56.28
73509;SHT30;61750;55.036;73.312;2023-03-19T14:55:50;-8.29;55.50
73509;SHT30;61750;55.036;73.312;2023-03-19T14:58:17;-8.30;55.25
73509;SHT30;61750;55.036;73.312;2023-03-19T15:00:51;-8.30;55.30
73509;SHT30;61750;55.036;73.312;2023-03-19T15:03:31;-8.36;55.64
73509;SHT30;61750;55.036;73.312;2023-03-19T15:06:09;-8.33;55.97
73509;SHT30;61750;55.036;73.312;2023-03-19T15:08:36;-8.40;55.49
73509;SHT30;61750;55.036;73.312;2023-03-19T15:13:47;-8.31;55.25
73509;SHT30;61750;55.036;73.312;2023-03-19T15:19:02;-8.40;55.32
73509;SHT30;61750;55.036;73.312;2023-03-19T15:22:11;-8.52;56.21
73509;SHT30;61750;55.036;73.312;2023-03-19T15:24:37;-8.51;55.54
73509;SHT30;61750;55.036;73.312;2023-03-19T15:27:19;-8.51;55.37
73509;SHT30;61750;55.036;73.312;2023-03-19T15:29:55;-8.55;55.35
73509;SHT30;61750;55.036;73.312;2023-03-19T15:32:31;-8.55;55.43
73509;SHT30;61750;55.036;73.312;2023-03-19T15:35:08;-8.57;55.42
73509;SHT30;61750;55.036;73.312;2023-03-19T15:37:44;-8.55;56.15
73509;SHT30;61750;55.036;73.312;2023-03-19T15:40:13;-8.57;55.72
73509;SHT30;61750;55.036;73.312;2023-03-19T15:42:48;-8.57;55.26
73509;SHT30;61750;55.036;73.312;2023-03-19T15:45:17;-8.58;55.34
73509;SHT30;61750;55.036;73.312;2023-03-19T15:47:50;-8.61;55.40
73509;SHT30;61750;55.036;73.312;2023-03-19T15:50:17;-8.58;55.57
73509;SHT30;61750;55.036;73.312;2023-03-19T15:52:45;-8.60;55.60
73509;SHT30;61750;55.036;73.312;2023-03-19T15:55:12;-8.65;55.65
73509;SHT30;61750;55.036;73.312;2023-03-19T15:57:39;-8.71;55.68
73509;SHT30;61750;55.036;73.312;2023-03-19T16:00:06;-8.78;55.90
73509;SHT30;61750;55.036;73.312;2023-03-19T16:02:41;-8.74;56.10
73509;SHT30;61750;55.036;73.312;2023-03-19T16:05:27;-8.71;55.87
73509;SHT30;61750;55.036;73.312;2023-03-19T16:07:57;-8.77;55.31
73509;SHT30;61750;55.036;73.312;2023-03-19T16:13:17;-8.77;54.80
73509;SHT30;61750;55.036;73.312;2023-03-19T16:15:53;-8.72;54.70
73509;SHT30;61750;55.036;73.312;2023-03-19T16:20:57;-8.85;55.35
73509;SHT30;61750;55.036;73.312;2023-03-19T16:23:35;-8.88;55.47
73509;SHT30;61750;55.036;73.312;2023-03-19T16:26:08;-8.77;54.66
73509;SHT30;61750;55.036;73.312;2023-03-19T16:28:40;-8.78;54.61
73509;SHT30;61750;55.036;73.312;2023-03-19T16:31:24;-8.82;54.84
73509;SHT30;61750;55.036;73.312;2023-03-19T16:33:50;-8.85;54.97
73509;SHT30;61750;55.036;73.312;2023-03-19T16:36:27;-8.89;54.59
73509;SHT30;61750;55.036;73.312;2023-03-19T16:38:56;-8.96;54.99
73509;SHT30;61750;55.036;73.312;2023-03-19T16:41:24;-8.98;54.98
73509;SHT30;61750;55.036;73.312;2023-03-19T16:43:51;-9.05;55.32
73509;SHT30;61750;55.036;73.312;2023-03-19T16:46:23;-9.14;55.54
73509;SHT30;61750;55.036;73.312;2023-03-19T16:49:01;-9.23;56.17
73509;SHT30;61750;55.036;73.312;2023-03-19T16:51:27;-9.25;55.70
73509;SHT30;61750;55.036;73.312;2023-03-19T16:53:53;-9.32;55.60
73509;SHT30;61750;55.036;73.312;2023-03-19T16:56:19;-9.43;56.45
73509;SHT30;61750;55.036;73.312;2023-03-19T16:58:50;-9.49;56.40
73509;SHT30;61750;55.036;73.312;2023-03-19T17:01:17;-9.51;56.09
73509;SHT30;61750;55.036;73.312;2023-03-19T17:03:54;-9.51;56.36
73509;SHT30;61750;55.036;73.312;2023-03-19T17:06:20;-9.56;56.31
73509;SHT30;61750;55.036;73.312;2023-03-19T17:08:46;-9.59;56.38
73509;SHT30;61750;55.036;73.312;2023-03-19T17:11:15;-9.66;56.74
73509;SHT30;61750;55.036;73.312;2023-03-19T17:13:42;-9.71;57.26
73509;SHT30;61750;55.036;73.312;2023-03-19T17:16:09;-9.63;56.86
73509;SHT30;61750;55.036;73.312;2023-03-19T17:18:37;-9.59;56.78
73509;SHT30;61750;55.036;73.312;2023-03-19T17:21:42;-9.53;56.21
73509;SHT30;61750;55.036;73.312;2023-03-19T17:24:03;-9.51;56.02
73509;SHT30;61750;55.036;73.312;2023-03-19T17:27:09;-9.59;56.41
73509;SHT30;61750;55.036;73.312;2023-03-19T17:29:40;-9.60;56.20
73509;SHT30;61750;55.036;73.312;2023-03-19T17:32:13;-9.61;56.18
73509;SHT30;61750;55.036;73.312;2023-03-19T17:34:41;-9.63;56.45
73509;SHT30;61750;55.036;73.312;2023-03-19T17:37:17;-9.66;56.28
73509;SHT30;61750;55.036;73.312;2023-03-19T17:39:43;-9.71;56.59
73509;SHT30;61750;55.036;73.312;2023-03-19T17:42:19;-9.73;56.25
73509;SHT30;61750;55.036;73.312;2023-03-19T17:44:46;-9.77;56.35
73509;SHT30;61750;55.036;73.312;2023-03-19T17:47:12;-9.80;56.21
73509;SHT30;61750;55.036;73.312;2023-03-19T17:49:38;-9.83;56.28